createdAt,value
2019-05-01T00:02:01.899Z,8.16
2019-05-01T00:04:39.818Z,8.13
2019-05-01T00:07:29.148Z,8.06
2019-05-01T00:09:59.751Z,8.02
2019-05-01T00:12:29.635Z,7.98
2019-05-01T00:14:59.444Z,7.95
2019-05-01T00:17:30.023Z,7.90
2019-05-01T00:19:59.660Z,7.86
2019-05-01T00:22:29.341Z,7.80
2019-05-01T00:24:58.966Z,7.76
2019-05-01T00:27:29.203Z,7.72
2019-05-01T00:29:59.478Z,7.68
2019-05-01T00:32:30.296Z,7.62
2019-05-01T00:35:00.084Z,7.56
2019-05-01T00:37:30.780Z,7.51
2019-05-01T00:40:00.880Z,7.47
2019-05-01T00:42:30.719Z,7.44
2019-05-01T00:45:00.432Z,7.39
2019-05-01T00:47:30.184Z,7.24
2019-05-01T00:49:59.890Z,7.24
2019-05-01T00:52:29.599Z,7.25
2019-05-01T00:55:17.353Z,7.23
2019-05-01T00:57:54.471Z,7.20
2019-05-01T01:00:25.781Z,7.16
2019-05-01T01:02:55.489Z,7.06
2019-05-01T01:05:25.792Z,7.06
2019-05-01T01:07:55.637Z,7.03
2019-05-01T01:10:25.469Z,7.01
2019-05-01T01:12:55.222Z,7.01
2019-05-01T01:15:25.799Z,7.01
2019-05-01T01:17:55.492Z,6.94
2019-05-01T01:20:25.128Z,6.94
2019-05-01T01:22:54.795Z,6.94
2019-05-01T01:25:24.529Z,6.88
2019-05-01T01:27:54.152Z,6.83
2019-05-01T01:30:23.823Z,6.83
2019-05-01T01:32:53.461Z,6.78
2019-05-01T01:35:23.168Z,6.73
2019-05-01T01:37:52.839Z,6.73
2019-05-01T01:40:22.483Z,6.73
2019-05-01T01:42:53.760Z,6.73
2019-05-01T01:45:25.072Z,6.74
2019-05-01T01:48:12.160Z,6.66
2019-05-01T01:50:42.967Z,6.71
2019-05-01T01:53:13.774Z,6.71
2019-05-01T01:55:43.479Z,6.68
2019-05-01T01:58:13.193Z,6.30
2019-05-01T02:00:51.103Z,6.27
2019-05-01T02:03:22.506Z,6.19
2019-05-01T02:05:52.245Z,6.14
2019-05-01T02:08:22.661Z,6.01
2019-05-01T02:10:52.494Z,5.95
2019-05-01T02:13:22.199Z,6.05
2019-05-01T02:15:51.876Z,6.00
2019-05-01T02:18:22.322Z,5.99
2019-05-01T02:20:52.063Z,5.97
2019-05-01T02:23:22.305Z,5.96
2019-05-01T02:25:52.231Z,5.91
2019-05-01T02:28:26.267Z,5.89
2019-05-01T02:31:26.990Z,5.89
2019-05-01T02:33:47.524Z,5.88
2019-05-01T02:36:17.382Z,5.78
2019-05-01T02:38:47.689Z,5.77
2019-05-01T02:41:17.971Z,5.79
2019-05-01T02:43:50.004Z,5.69
2019-05-01T02:46:19.680Z,5.65
2019-05-01T02:49:06.982Z,5.62
2019-05-01T02:51:37.122Z,5.58
2019-05-01T02:54:07.053Z,5.54
2019-05-01T02:56:38.367Z,5.50
2019-05-01T02:59:07.998Z,5.50
2019-05-01T03:01:46.862Z,5.47
2019-05-01T03:04:09.171Z,5.46
2019-05-01T03:06:38.840Z,5.46
2019-05-01T03:09:08.766Z,5.48
2019-05-01T03:11:39.849Z,5.42
2019-05-01T03:14:12.788Z,5.37
2019-05-01T03:16:42.455Z,5.37
2019-05-01T03:19:16.520Z,5.40
2019-05-01T03:24:32.844Z,5.35
2019-05-01T03:27:02.804Z,5.38
2019-05-01T03:29:32.747Z,5.39
2019-05-01T03:32:16.589Z,5.38
2019-05-01T03:34:34.357Z,5.37
2019-05-01T03:37:04.274Z,5.37
2019-05-01T03:39:34.236Z,5.41
2019-05-01T03:42:03.862Z,5.41
2019-05-01T03:44:35.105Z,5.37
2019-05-01T03:47:05.036Z,5.36
2019-05-01T03:49:34.993Z,5.32
2019-05-01T03:52:04.930Z,5.30
2019-05-01T03:54:34.898Z,5.27
2019-05-01T03:57:04.832Z,5.28
2019-05-01T03:59:34.805Z,5.26
2019-05-01T04:02:32.104Z,5.26
2019-05-01T04:04:49.933Z,5.26
2019-05-01T04:07:19.865Z,5.28
2019-05-01T04:09:49.823Z,5.31
2019-05-01T04:12:19.785Z,5.36
2019-05-01T04:14:50.795Z,5.36
2019-05-01T04:17:31.127Z,5.35
2019-05-01T04:20:01.506Z,5.41
2019-05-01T04:22:31.518Z,5.41
2019-05-01T04:25:01.482Z,5.46
2019-05-01T04:27:33.124Z,5.43
2019-05-01T04:30:05.201Z,5.44
2019-05-01T04:32:51.187Z,5.44
2019-05-01T04:35:17.388Z,5.52
2019-05-01T04:37:47.486Z,5.58
2019-05-01T04:40:18.929Z,5.57
2019-05-01T04:42:48.776Z,5.57
2019-05-01T04:45:18.735Z,5.68
2019-05-01T04:47:48.775Z,5.74
2019-05-01T04:50:18.707Z,5.80
2019-05-01T04:52:48.671Z,5.84
2019-05-01T04:55:18.606Z,5.90
2019-05-01T04:57:49.808Z,5.98
2019-05-01T05:00:19.514Z,6.05
2019-05-01T05:03:03.579Z,6.18
2019-05-01T05:05:22.145Z,6.18
2019-05-01T05:07:52.113Z,6.38
2019-05-01T05:10:22.957Z,6.52
2019-05-01T05:13:10.594Z,6.62
2019-05-01T05:15:42.339Z,6.62
2019-05-01T05:18:12.045Z,6.79
2019-05-01T05:20:41.709Z,6.93
2019-05-01T05:23:11.710Z,7.05
2019-05-01T05:25:42.348Z,7.24
2019-05-01T05:28:12.754Z,7.24
2019-05-01T05:30:44.930Z,7.34
2019-05-01T05:33:18.502Z,7.49
2019-05-01T05:35:46.565Z,7.59
2019-05-01T05:38:27.078Z,7.71
2019-05-01T05:41:00.347Z,7.85
2019-05-01T05:43:29.859Z,7.97
2019-05-01T05:45:59.858Z,8.11
2019-05-01T05:48:29.526Z,8.16
2019-05-01T05:51:03.990Z,8.23
2019-05-01T05:53:40.942Z,8.40
2019-05-01T05:56:15.515Z,8.52
2019-05-01T05:58:49.525Z,8.70
2019-05-01T06:01:29.815Z,8.86
2019-05-01T06:04:17.268Z,8.96
2019-05-01T06:06:54.494Z,9.14
2019-05-01T06:09:25.801Z,9.25
2019-05-01T06:12:09.045Z,9.38
2019-05-01T06:14:39.754Z,9.52
2019-05-01T06:17:11.061Z,9.71
2019-05-01T06:19:45.821Z,9.84
2019-05-01T06:22:18.299Z,9.96
2019-05-01T06:24:55.740Z,10.13
2019-05-01T06:27:25.379Z,10.14
2019-05-01T06:29:55.115Z,10.19
2019-05-01T06:32:28.879Z,10.25
2019-05-01T06:34:58.487Z,10.31
2019-05-01T06:38:00.657Z,10.41
2019-05-01T06:40:43.736Z,10.50
2019-05-01T06:43:25.407Z,10.64
2019-05-01T06:45:54.179Z,10.78
2019-05-01T06:48:28.511Z,10.91
2019-05-01T06:50:58.845Z,11.04
2019-05-01T06:53:28.283Z,11.17
2019-05-01T06:55:57.927Z,11.32
2019-05-01T06:58:27.568Z,11.45
2019-05-01T07:00:57.235Z,11.55
2019-05-01T07:03:26.867Z,11.50
2019-05-01T07:05:56.556Z,11.48
2019-05-01T07:08:29.464Z,11.59
2019-05-01T07:10:58.939Z,11.70
2019-05-01T07:13:28.619Z,11.77
2019-05-01T07:16:00.536Z,11.86
2019-05-01T07:18:30.904Z,11.88
2019-05-01T07:21:00.621Z,12.01
2019-05-01T07:23:30.355Z,12.15
2019-05-01T07:26:01.167Z,12.31
2019-05-01T07:28:34.352Z,12.41
2019-05-01T07:31:05.275Z,12.50
2019-05-01T07:33:35.903Z,12.49
2019-05-01T07:36:07.550Z,12.58
2019-05-01T07:38:38.448Z,12.67
2019-05-01T07:41:08.510Z,12.80
2019-05-01T07:43:59.610Z,12.95
2019-05-01T07:46:36.372Z,13.11
2019-05-01T07:49:06.004Z,13.31
2019-05-01T07:51:37.714Z,13.53
2019-05-01T07:54:08.948Z,13.52
2019-05-01T07:56:38.491Z,13.54
2019-05-01T07:59:08.160Z,13.56
2019-05-01T08:01:42.059Z,13.61
2019-05-01T08:04:13.809Z,13.77
2019-05-01T08:06:43.219Z,13.92
2019-05-01T08:09:15.131Z,14.14
2019-05-01T08:11:45.495Z,14.40
2019-05-01T08:14:16.463Z,14.21
2019-05-01T08:16:46.896Z,13.77
2019-05-01T08:19:18.213Z,13.65
2019-05-01T08:24:53.834Z,13.93
2019-05-01T08:27:28.992Z,14.16
2019-05-01T08:30:12.796Z,14.36
2019-05-01T08:32:47.873Z,14.65
2019-05-01T08:35:19.194Z,14.96
2019-05-01T08:37:48.867Z,15.15
2019-05-01T08:40:20.552Z,15.22
2019-05-01T08:42:50.979Z,14.91
2019-05-01T08:45:24.847Z,14.63
2019-05-01T08:48:00.380Z,14.55
2019-05-01T08:50:30.291Z,14.84
2019-05-01T08:52:59.926Z,14.63
2019-05-01T08:55:29.598Z,14.78
2019-05-01T08:57:59.312Z,14.76
2019-05-01T09:00:30.857Z,14.66
2019-05-01T09:03:08.256Z,14.63
2019-05-01T09:05:33.926Z,14.47
2019-05-01T09:08:03.104Z,14.51
2019-05-01T09:10:32.774Z,14.96
2019-05-01T09:13:02.515Z,15.06
2019-05-01T09:15:32.223Z,15.31
2019-05-01T09:18:01.888Z,15.58
2019-05-01T09:20:33.178Z,15.92
2019-05-01T09:23:02.860Z,15.81
2019-05-01T09:28:46.072Z,15.42
2019-05-01T09:31:17.351Z,15.19
2019-05-01T09:33:47.051Z,15.19
2019-05-01T09:36:16.667Z,15.01
2019-05-01T09:38:46.405Z,15.19
2019-05-01T09:41:16.113Z,15.53
2019-05-01T09:43:45.858Z,15.85
2019-05-01T09:46:15.506Z,16.12
2019-05-01T09:48:45.818Z,16.04
2019-05-01T09:51:23.080Z,16.10
2019-05-01T09:53:54.468Z,16.20
2019-05-01T09:56:28.458Z,16.35
2019-05-01T09:58:58.137Z,16.48
2019-05-01T10:01:31.526Z,16.57
2019-05-01T10:03:59.359Z,16.61
2019-05-01T10:06:29.058Z,16.82
2019-05-01T10:08:58.731Z,16.95
2019-05-01T10:11:28.374Z,16.66
2019-05-01T10:13:59.587Z,16.83
2019-05-01T10:16:29.393Z,16.64
2019-05-01T10:18:59.113Z,16.43
2019-05-01T10:21:28.948Z,16.34
2019-05-01T10:23:58.698Z,16.62
2019-05-01T10:26:30.077Z,16.89
2019-05-01T10:29:17.379Z,17.10
2019-05-01T10:32:00.496Z,17.15
2019-05-01T10:34:43.068Z,17.37
2019-05-01T10:37:12.089Z,17.63
2019-05-01T10:39:41.838Z,17.79
2019-05-01T10:42:11.480Z,17.68
2019-05-01T10:44:41.157Z,17.15
2019-05-01T10:47:10.801Z,17.16
2019-05-01T10:49:40.505Z,17.42
2019-05-01T10:52:14.273Z,17.61
2019-05-01T10:54:41.511Z,17.46
2019-05-01T10:57:12.988Z,17.47
2019-05-01T10:59:42.655Z,17.83
2019-05-01T11:02:13.927Z,18.26
2019-05-01T11:04:43.594Z,18.81
2019-05-01T11:07:13.267Z,19.80
2019-05-01T11:09:42.975Z,20.72
2019-05-01T11:12:12.720Z,21.22
2019-05-01T11:14:42.435Z,21.81
2019-05-01T11:17:12.315Z,21.42
2019-05-01T11:19:42.066Z,21.87
2019-05-01T11:22:11.771Z,21.71
2019-05-01T11:24:41.443Z,21.33
2019-05-01T11:27:11.160Z,19.92
2019-05-01T11:29:40.833Z,19.71
2019-05-01T11:32:12.115Z,19.25
2019-05-01T11:34:43.431Z,18.88
2019-05-01T11:37:23.427Z,18.90
2019-05-01T11:40:03.604Z,19.04
2019-05-01T11:42:33.326Z,19.10
2019-05-01T11:45:03.640Z,19.25
2019-05-01T11:47:33.284Z,19.36
2019-05-01T11:50:03.027Z,19.47
2019-05-01T11:52:32.660Z,19.58
2019-05-01T11:55:02.309Z,20.02
2019-05-01T11:57:31.993Z,20.70
2019-05-01T12:00:03.955Z,20.80
2019-05-01T12:02:34.003Z,20.87
2019-05-01T12:05:04.615Z,20.68
2019-05-01T12:07:34.456Z,20.77
2019-05-01T12:10:05.970Z,21.02
2019-05-01T12:12:35.708Z,20.99
2019-05-01T12:15:07.056Z,20.71
2019-05-01T12:17:39.058Z,20.69
2019-05-01T12:20:09.660Z,20.44
2019-05-01T12:22:39.338Z,20.75
2019-05-01T12:25:09.023Z,20.47
2019-05-01T12:27:38.663Z,20.38
2019-05-01T12:30:08.513Z,20.32
2019-05-01T12:32:38.151Z,20.29
2019-05-01T12:35:07.825Z,19.76
2019-05-01T12:37:39.105Z,19.02
2019-05-01T12:40:10.876Z,18.60
2019-05-01T12:42:40.571Z,19.61
2019-05-01T12:45:11.206Z,20.37
2019-05-01T12:47:42.484Z,20.06
2019-05-01T12:50:12.232Z,19.94
2019-05-01T12:52:46.198Z,19.80
2019-05-01T12:55:29.923Z,19.58
2019-05-01T12:57:59.563Z,19.46
2019-05-01T13:00:35.192Z,19.28
2019-05-01T13:03:04.876Z,19.44
2019-05-01T13:05:34.587Z,19.63
2019-05-01T13:08:04.251Z,19.58
2019-05-01T13:10:33.893Z,19.64
2019-05-01T13:13:03.564Z,19.58
2019-05-01T13:15:33.268Z,19.27
2019-05-01T13:18:02.959Z,19.24
2019-05-01T13:20:32.686Z,19.14
2019-05-01T13:23:02.379Z,19.22
2019-05-01T13:25:32.219Z,19.31
2019-05-01T13:28:15.451Z,19.27
2019-05-01T13:30:52.727Z,19.26
2019-05-01T13:33:22.427Z,19.42
2019-05-01T13:35:52.231Z,19.61
2019-05-01T13:38:21.868Z,19.54
2019-05-01T13:40:51.539Z,19.73
2019-05-01T13:43:21.188Z,19.67
2019-05-01T13:45:50.930Z,19.73
2019-05-01T13:48:20.559Z,20.00
2019-05-01T13:50:50.311Z,19.97
2019-05-01T13:53:19.979Z,20.19
2019-05-01T13:55:49.708Z,20.51
2019-05-01T13:58:19.432Z,20.73
2019-05-01T14:00:49.070Z,20.59
2019-05-01T14:03:18.748Z,20.13
2019-05-01T14:05:48.392Z,20.08
2019-05-01T14:08:18.067Z,20.19
2019-05-01T14:10:47.775Z,20.26
2019-05-01T14:13:18.726Z,20.23
2019-05-01T14:15:48.411Z,20.14
2019-05-01T14:18:18.143Z,20.31
2019-05-01T14:20:52.100Z,20.37
2019-05-01T14:23:23.530Z,20.09
2019-05-01T14:26:06.668Z,19.74
2019-05-01T14:28:37.054Z,19.54
2019-05-01T14:31:07.439Z,19.43
2019-05-01T14:33:37.221Z,19.39
2019-05-01T14:36:06.882Z,19.29
2019-05-01T14:38:36.552Z,19.36
2019-05-01T14:41:06.201Z,19.38
2019-05-01T14:43:35.872Z,19.29
2019-05-01T14:46:05.514Z,19.19
2019-05-01T14:48:35.188Z,19.17
2019-05-01T14:51:04.860Z,19.14
2019-05-01T14:53:34.494Z,19.22
2019-05-01T14:56:04.864Z,19.47
2019-05-01T14:58:34.578Z,19.66
2019-05-01T15:01:04.263Z,19.80
2019-05-01T15:03:33.903Z,19.97
2019-05-01T15:06:03.575Z,20.13
2019-05-01T15:08:33.214Z,20.32
2019-05-01T15:11:03.025Z,20.13
2019-05-01T15:13:37.274Z,19.77
2019-05-01T15:16:07.746Z,19.57
2019-05-01T15:18:38.743Z,19.61
2019-05-01T15:21:08.419Z,19.67
2019-05-01T15:23:38.063Z,19.74
2019-05-01T15:26:07.808Z,19.54
2019-05-01T15:28:37.445Z,19.56
2019-05-01T15:31:07.182Z,19.64
2019-05-01T15:33:36.820Z,19.82
2019-05-01T15:36:06.470Z,19.94
2019-05-01T15:38:36.152Z,20.04
2019-05-01T15:41:07.426Z,19.98
2019-05-01T15:43:44.484Z,19.66
2019-05-01T15:46:14.208Z,19.54
2019-05-01T15:48:43.850Z,19.63
2019-05-01T15:51:13.515Z,19.76
2019-05-01T15:53:43.151Z,19.61
2019-05-01T15:56:12.820Z,19.64
2019-05-01T15:58:42.464Z,20.32
2019-05-01T16:01:12.136Z,21.79
2019-05-01T16:03:41.773Z,21.66
2019-05-01T16:06:11.411Z,21.10
2019-05-01T16:08:41.151Z,21.00
2019-05-01T16:11:13.507Z,20.60
2019-05-01T16:13:43.247Z,20.39
2019-05-01T16:16:12.959Z,20.22
2019-05-01T16:18:42.703Z,20.08
2019-05-01T16:21:12.412Z,19.95
2019-05-01T16:23:42.150Z,19.76
2019-05-01T16:26:11.798Z,19.78
2019-05-01T16:28:41.468Z,19.71
2019-05-01T16:31:11.190Z,19.65
2019-05-01T16:33:42.331Z,19.64
2019-05-01T16:36:12.042Z,19.59
2019-05-01T16:38:50.228Z,19.42
2019-05-01T16:41:19.937Z,19.31
2019-05-01T16:43:49.680Z,19.24
2019-05-01T16:46:19.386Z,19.26
2019-05-01T16:48:49.062Z,19.23
2019-05-01T16:51:18.840Z,19.15
2019-05-01T16:53:48.482Z,19.08
2019-05-01T16:56:18.154Z,18.97
2019-05-01T16:58:47.870Z,19.00
2019-05-01T17:01:19.251Z,18.97
2019-05-01T17:03:50.604Z,18.88
2019-05-01T17:09:22.663Z,18.70
2019-05-01T17:11:52.340Z,18.77
2019-05-01T17:14:22.828Z,18.52
2019-05-01T17:16:52.571Z,18.43
2019-05-01T17:19:22.252Z,18.32
2019-05-01T17:21:51.895Z,18.28
2019-05-01T17:24:21.573Z,18.23
2019-05-01T17:26:51.268Z,18.20
2019-05-01T17:29:21.014Z,18.15
2019-05-01T17:31:50.722Z,18.13
2019-05-01T17:34:20.399Z,18.08
2019-05-01T17:36:50.070Z,18.07
2019-05-01T17:39:21.183Z,18.02
2019-05-01T17:41:50.837Z,17.93
2019-05-01T17:44:25.355Z,17.79
2019-05-01T17:46:51.846Z,17.67
2019-05-01T17:49:21.518Z,17.49
2019-05-01T17:51:51.160Z,17.31
2019-05-01T17:54:20.859Z,17.06
2019-05-01T17:56:53.733Z,16.93
2019-05-01T17:59:21.843Z,16.75
2019-05-01T18:02:05.165Z,16.53
2019-05-01T18:04:50.872Z,16.35
2019-05-01T18:07:20.543Z,16.22
2019-05-01T18:09:51.342Z,16.07
2019-05-01T18:12:23.432Z,15.85
2019-05-01T18:14:53.442Z,15.71
2019-05-01T18:17:23.150Z,15.58
2019-05-01T18:19:52.835Z,15.42
2019-05-01T18:22:26.891Z,15.24
2019-05-01T18:25:05.968Z,15.05
2019-05-01T18:27:54.564Z,14.86
2019-05-01T18:30:26.410Z,14.64
2019-05-01T18:32:56.125Z,14.44
2019-05-01T18:35:25.788Z,14.20
2019-05-01T18:37:57.066Z,14.10
2019-05-01T18:40:28.378Z,13.93
2019-05-01T18:42:58.016Z,13.82
2019-05-01T18:45:54.031Z,13.75
2019-05-01T18:48:23.738Z,13.68
2019-05-01T18:50:54.978Z,13.54
2019-05-01T18:53:24.820Z,13.45
2019-05-01T18:55:54.458Z,13.31
2019-05-01T18:58:24.127Z,13.20
2019-05-01T19:00:53.839Z,13.03
2019-05-01T19:03:23.509Z,12.82
2019-05-01T19:05:53.165Z,12.72
2019-05-01T19:08:22.907Z,12.62
2019-05-01T19:10:52.620Z,12.55
2019-05-01T19:13:22.419Z,12.50
2019-05-01T19:15:52.106Z,12.45
2019-05-01T19:18:21.995Z,12.41
2019-05-01T19:20:59.261Z,12.38
2019-05-01T19:23:27.740Z,12.34
2019-05-01T19:25:56.350Z,12.31
2019-05-01T19:28:26.007Z,12.27
2019-05-01T19:30:56.831Z,12.26
2019-05-01T19:33:26.706Z,12.21
2019-05-01T19:35:57.585Z,12.16
2019-05-01T19:38:29.496Z,12.06
2019-05-01T19:40:58.779Z,11.97
2019-05-01T19:43:28.432Z,11.90
2019-05-01T19:45:58.235Z,11.83
2019-05-01T19:48:27.951Z,11.76
2019-05-01T19:50:57.644Z,11.70
2019-05-01T19:53:28.975Z,11.59
2019-05-01T19:55:58.999Z,11.53
2019-05-01T19:58:28.653Z,11.47
2019-05-01T20:01:03.670Z,11.43
2019-05-01T20:03:36.122Z,11.34
2019-05-01T20:06:06.200Z,11.25
2019-05-01T20:08:35.415Z,11.17
2019-05-01T20:11:05.164Z,11.09
2019-05-01T20:13:34.887Z,11.06
2019-05-01T20:16:06.343Z,10.97
2019-05-01T20:18:36.056Z,10.92
2019-05-01T20:21:05.770Z,10.85
2019-05-01T20:23:35.522Z,10.80
2019-05-01T20:26:05.262Z,10.77
2019-05-01T20:28:34.971Z,10.72
2019-05-01T20:31:04.743Z,10.49
2019-05-01T20:33:39.057Z,10.37
2019-05-01T20:36:06.659Z,10.27
2019-05-01T20:38:36.780Z,10.19
2019-05-01T20:41:10.078Z,10.11
2019-05-01T20:43:42.870Z,10.05
2019-05-01T20:46:09.461Z,10.01
2019-05-01T20:48:39.162Z,9.96
2019-05-01T20:51:08.898Z,9.90
2019-05-01T20:53:38.535Z,9.86
2019-05-01T20:56:12.579Z,9.81
2019-05-01T20:58:42.282Z,9.69
2019-05-01T21:01:12.162Z,9.69
2019-05-01T21:03:43.511Z,9.67
2019-05-01T21:06:17.819Z,9.63
2019-05-01T21:08:48.213Z,9.62
2019-05-01T21:11:25.127Z,9.61
2019-05-01T21:14:15.593Z,9.56
2019-05-01T21:16:26.836Z,9.53
2019-05-01T21:18:56.540Z,9.48
2019-05-01T21:21:27.275Z,9.44
2019-05-01T21:23:56.910Z,9.39
2019-05-01T21:26:28.117Z,9.34
2019-05-01T21:28:57.853Z,9.31
2019-05-01T21:31:27.485Z,9.28
2019-05-01T21:33:57.151Z,9.22
2019-05-01T21:36:26.856Z,9.21
2019-05-01T21:38:56.513Z,9.17
2019-05-01T21:41:26.138Z,9.13
2019-05-01T21:43:55.874Z,9.09
2019-05-01T21:46:25.578Z,9.01
2019-05-01T21:48:55.216Z,8.95
2019-05-01T21:51:24.882Z,8.90
2019-05-01T21:53:54.558Z,8.85
2019-05-01T21:56:24.188Z,8.78
2019-05-01T21:58:55.027Z,8.74
2019-05-01T22:01:24.866Z,8.69
2019-05-01T22:03:57.127Z,8.65
2019-05-01T22:06:26.002Z,8.60
2019-05-01T22:08:55.735Z,8.57
2019-05-01T22:11:25.399Z,8.53
2019-05-01T22:14:00.310Z,8.48
2019-05-01T22:16:30.033Z,8.45
2019-05-01T22:19:01.415Z,8.39
2019-05-01T22:21:32.692Z,8.37
2019-05-01T22:24:06.927Z,8.34
2019-05-01T22:26:38.008Z,8.35
2019-05-01T22:29:11.917Z,8.32
2019-05-01T22:31:59.182Z,8.31
2019-05-01T22:34:42.363Z,8.27
2019-05-01T22:37:12.059Z,8.22
2019-05-01T22:39:43.336Z,8.21
2019-05-01T22:42:13.140Z,8.21
2019-05-01T22:44:42.761Z,8.16
2019-05-01T22:47:15.134Z,8.12
2019-05-01T22:49:43.962Z,8.08
2019-05-01T22:52:13.593Z,8.03
2019-05-01T22:54:44.934Z,8.00
2019-05-01T22:57:14.844Z,7.95
2019-05-01T22:59:44.507Z,7.90
2019-05-01T23:02:15.775Z,7.87
2019-05-01T23:04:48.285Z,7.84
2019-05-01T23:07:18.549Z,7.79
2019-05-01T23:09:48.259Z,7.79
2019-05-01T23:12:17.887Z,7.73
2019-05-01T23:14:47.670Z,7.67
2019-05-01T23:17:19.033Z,7.64
2019-05-01T23:19:48.904Z,7.61
2019-05-01T23:22:18.994Z,7.61
2019-05-01T23:24:48.618Z,7.58
2019-05-01T23:27:18.286Z,7.58
2019-05-01T23:29:47.985Z,7.57
2019-05-01T23:32:17.721Z,7.55
2019-05-01T23:34:47.381Z,7.55
2019-05-01T23:37:17.078Z,7.56
2019-05-01T23:39:46.743Z,7.56
2019-05-01T23:42:16.361Z,7.54
2019-05-01T23:44:46.032Z,7.54
2019-05-01T23:47:15.653Z,7.53
2019-05-01T23:49:47.766Z,7.55
2019-05-01T23:52:16.636Z,7.55
2019-05-01T23:54:46.252Z,7.56
2019-05-01T23:57:18.868Z,7.57
2019-05-01T23:59:47.303Z,7.56
